Brisbin, PA (16620)

12:49 AM EDT die 20o August, anno 2014 (GMT -0400)
Tyrone | Change Station
CLOSE
Current Station
Personal Weather Stations
Location: Tyrone, PA
Elevation: 1138 ft
Nearby Weather Stations

Elev 1138 ft 40.68 °N, 78.26 °W | Updated 6 minutes ago

Clear
Serena
64.5 °F
Feels Like 64.5 °F
N
0.0
Ventus Variabilis Ventus from Magis Auster quam Eurus
Gusts 0.0 mph

Hodie
High -- | Low -- °F
--% Chance of Precip.
Yesterday
High -- | Low -- °F
Precip. -- in
6:28 AM 8:04 PM
Waning Crescent, 24% visible
Pressio 29.95 in
Visibilitas 3.0 milia passuum
Clouds Serena
Frigus in quo Ros apparet 64 °F
Umor 99%
Rainfall -9999.00 in
Snow Depth Not available.
UV 0 out of 12
Pollen 9.00 out of 12
Air Quality Not available.
Flu Activity Not available.
SPECI KFIG 200422Z AUTO 34005KT 3SM BR CLR 17/17 A2995 RMK AO2 T01720167

More Conditions Fewer Conditions

Pressio 29.95 in
Visibilitas 3.0 milia passuum
Clouds Serena
Frigus in quo Ros apparet 64 °F
Umor 99%
Rainfall -9999.00 in
Snow Depth Not available.
UV 0 out of 12
Pollen 9.00 out of 12
Air Quality Not available.
Flu Activity Not available.
SPECI KFIG 200422Z AUTO 34005KT 3SM BR CLR 17/17 A2995 RMK AO2 T01720167

More Conditions Fewer Conditions

10-Day Weather Forecast

Almanac

Astronomy

Aug. 20, 2014 Rise Set
Actual Time 6:28 AM EDT 8:04 PM EDT
Civil Twilight 5:59 AM EDT 8:33 PM EDT
Nautical Twilight 5:24 AM EDT 9:08 PM EDT
Astronomical Twilight 4:46 AM EDT 9:45 PM EDT
Moon 2:06 AM EDT 4:48 PM EDT
Length Of Visible Light 14h 33m
Length of Day
13h 35m
Tomorrow will be 2m 28s shorter.
Waning Crescent, 24% of the Moon is Illuminated
Hodie
Waning Crescent
Aug 25
New
Sep 2
First Quarter
Sep 8
Full
Sep 15
Last Quarter

Today's Extremes

State Highs State Lows

Community

WunderPhotos

Upload Photos

1,745,585 photos uploaded!

Nearby

Snow Depth

Station Depth Elevation
No new snow has been reported.

Earthquake Activity

City Distance Mag. Time & Date
No recent earthquake activity has been reported nearby.
Minimum magnitude displayed is 2.5.

Coastal Water Temperatures

Locus Calor
No Stations Reporting

Nearby Weather Stations